RJTK(METAR)
04/24 09:00
METAR RJTK 240000Z 18007KT 9999 FEW015 SCT020 BKN120 20/16 Q1019 RMK
1CU015 4CU020 6AC120 A3009=
戻る
トップページへ戻る
IMOC Co,.Ltd.